createdAt,value
2024-01-12T00:02:21.686Z,101292.47
2024-01-12T00:04:49.403Z,101288.34
2024-01-12T00:07:17.039Z,101295.72
2024-01-12T00:09:45.271Z,101300.38
2024-01-12T00:12:14.270Z,101300.38
2024-01-12T00:14:41.918Z,101293.59
2024-01-12T00:17:09.582Z,101298.91
2024-01-12T00:19:37.296Z,101312.56
2024-01-12T00:22:05.286Z,101310.63
2024-01-12T00:24:32.895Z,101307.97
2024-01-12T00:27:00.545Z,101304.38
2024-01-12T00:29:29.532Z,101313.53
2024-01-12T00:31:58.313Z,101321.22
2024-01-12T00:34:25.913Z,101312.66
2024-01-12T00:36:54.843Z,101310.72
2024-01-12T00:39:22.620Z,101317.66
2024-01-12T00:41:52.010Z,101317.31
2024-01-12T00:44:20.046Z,101327.34
2024-01-12T00:46:51.936Z,101329.53
2024-01-12T00:49:20.436Z,101322.75
2024-01-12T00:51:48.716Z,101328.47
2024-01-12T00:54:16.930Z,101333.88
2024-01-12T00:56:44.949Z,101327.25
2024-01-12T00:59:12.711Z,101330.66
2024-01-12T01:01:40.378Z,101333.47
2024-01-12T01:04:09.404Z,101332.03
2024-01-12T01:06:37.288Z,101328.81
2024-01-12T01:09:05.044Z,101320.94
2024-01-12T01:11:32.804Z,101331.38
2024-01-12T01:14:00.458Z,101338.56
2024-01-12T01:16:28.170Z,101335.72
2024-01-12T01:18:55.906Z,101332.88
2024-01-12T01:21:25.225Z,101337.16
2024-01-12T01:23:52.983Z,101340.38
2024-01-12T01:26:20.601Z,101350.06
2024-01-12T01:28:48.799Z,101357.59
2024-01-12T01:31:16.591Z,101358.31
2024-01-12T01:33:44.705Z,101358.00
2024-01-12T01:36:12.399Z,101360.81
2024-01-12T01:38:41.355Z,101361.19
2024-01-12T01:41:09.063Z,101352.63
2024-01-12T01:43:36.638Z,101361.59
2024-01-12T01:46:04.834Z,101357.00
2024-01-12T01:48:33.293Z,101356.63
2024-01-12T01:51:01.302Z,101358.09
2024-01-12T01:53:29.227Z,101360.22
2024-01-12T01:55:58.309Z,101351.63
2024-01-12T01:58:26.700Z,101355.22
2024-01-12T02:00:54.891Z,101361.13
2024-01-12T02:03:25.210Z,101360.25
2024-01-12T02:05:57.905Z,101361.72
2024-01-12T02:08:26.333Z,101361.72
2024-01-12T02:10:54.398Z,101362.75
2024-01-12T02:13:23.797Z,101364.22
2024-01-12T02:15:51.651Z,101353.81
2024-01-12T02:18:19.410Z,101353.50
2024-01-12T02:20:49.264Z,101356.38
2024-01-12T02:23:18.668Z,101352.97
2024-01-12T02:25:46.361Z,101353.16
2024-01-12T02:28:14.553Z,101350.31
2024-01-12T02:30:42.294Z,101342.97
2024-01-12T02:33:10.383Z,101353.56
2024-01-12T02:35:38.241Z,101356.78
2024-01-12T02:38:05.898Z,101358.94
2024-01-12T02:40:34.819Z,101360.41
2024-01-12T02:43:02.933Z,101354.28
2024-01-12T02:45:30.609Z,101362.91
2024-01-12T02:47:58.366Z,101352.88
2024-01-12T02:50:26.185Z,101351.97
2024-01-12T02:52:54.008Z,101351.78
2024-01-12T02:55:21.599Z,101352.00
2024-01-12T02:57:50.597Z,101348.59
2024-01-12T03:00:18.603Z,101346.44
2024-01-12T03:02:46.543Z,101338.59
2024-01-12T03:05:14.369Z,101334.31
2024-01-12T03:07:42.120Z,101339.34
2024-01-12T03:10:10.676Z,101325.72
2024-01-12T03:12:38.350Z,101336.31
2024-01-12T03:15:08.371Z,101339.19
2024-01-12T03:17:36.350Z,101337.22
2024-01-12T03:20:06.139Z,101328.63
2024-01-12T03:22:33.771Z,101330.81
2024-01-12T03:25:01.952Z,101329.34
2024-01-12T03:27:29.581Z,101316.09
2024-01-12T03:29:57.450Z,101320.94
2024-01-12T03:32:26.778Z,101316.09
2024-01-12T03:34:54.577Z,101309.31
2024-01-12T03:37:22.215Z,101311.66
2024-01-12T03:39:49.975Z,101310.78
2024-01-12T03:42:18.090Z,101314.50
2024-01-12T03:44:45.709Z,101301.66
2024-01-12T03:47:13.479Z,101308.97
2024-01-12T03:49:42.883Z,101317.19
2024-01-12T03:52:15.404Z,101319.88
2024-01-12T03:54:44.225Z,101321.47
2024-01-12T03:57:11.966Z,101320.59
2024-01-12T03:59:39.598Z,101310.41
2024-01-12T04:02:07.526Z,101308.63
2024-01-12T04:04:35.110Z,101313.63
2024-01-12T04:07:04.425Z,101314.84
2024-01-12T04:09:32.059Z,101308.97
2024-01-12T04:11:59.678Z,101313.97
2024-01-12T04:14:27.398Z,101314.31
2024-01-12T04:16:55.095Z,101324.34
2024-01-12T04:19:22.787Z,101328.63
2024-01-12T04:21:50.416Z,101325.59
2024-01-12T04:24:19.379Z,101328.06
2024-01-12T04:26:47.124Z,101327.50
2024-01-12T04:29:14.851Z,101331.09
2024-01-12T04:31:42.691Z,101326.44
2024-01-12T04:34:10.483Z,101324.16
2024-01-12T04:36:38.215Z,101324.34
2024-01-12T04:39:05.957Z,101336.72
2024-01-12T04:41:34.963Z,101332.22
2024-01-12T04:44:02.691Z,101332.94
2024-01-12T04:46:30.683Z,101334.56
2024-01-12T04:48:58.507Z,101329.38
2024-01-12T04:51:26.216Z,101333.16
2024-01-12T04:53:53.930Z,101335.09
2024-01-12T04:56:21.644Z,101338.31
2024-01-12T04:58:50.851Z,101339.75
2024-01-12T05:01:18.726Z,101339.41
2024-01-12T05:03:46.439Z,101345.84
2024-01-12T05:06:14.227Z,101346.94
2024-01-12T05:08:41.986Z,101349.06
2024-01-12T05:11:09.640Z,101352.13
2024-01-12T05:13:37.355Z,101351.25
2024-01-12T05:16:06.637Z,101356.25
2024-01-12T05:18:34.482Z,101355.88
2024-01-12T05:21:02.285Z,101361.78
2024-01-12T05:23:29.932Z,101356.97
2024-01-12T05:25:57.693Z,101362.69
2024-01-12T05:28:25.312Z,101367.69
2024-01-12T05:30:53.208Z,101366.66
2024-01-12T05:33:22.273Z,101361.28
2024-01-12T05:35:49.970Z,101362.16
2024-01-12T05:38:17.608Z,101356.78
2024-01-12T05:40:45.287Z,101345.88
2024-01-12T05:43:12.874Z,101345.19
2024-01-12T05:45:40.522Z,101350.19
2024-01-12T05:48:08.583Z,101350.19
2024-01-12T05:50:37.799Z,101351.25
2024-01-12T05:53:07.398Z,101350.69
2024-01-12T05:55:35.806Z,101345.88
2024-01-12T05:58:04.387Z,101356.44
2024-01-12T06:00:33.556Z,101359.31
2024-01-12T06:03:01.292Z,101358.41
2024-01-12T06:05:29.060Z,101364.47
2024-01-12T06:07:58.002Z,101358.78
2024-01-12T06:10:25.609Z,101365.19
2024-01-12T06:12:53.854Z,101354.66
2024-01-12T06:15:21.602Z,101351.44
2024-01-12T06:17:50.016Z,101344.09
2024-01-12T06:20:17.908Z,101342.66
2024-01-12T06:22:45.486Z,101332.31
2024-01-12T06:25:14.564Z,101331.94
2024-01-12T06:27:42.738Z,101338.72
2024-01-12T06:30:10.968Z,101333.38
2024-01-12T06:32:39.473Z,101336.25
2024-01-12T06:35:10.197Z,101340.88
2024-01-12T06:37:38.018Z,101344.63
2024-01-12T06:40:06.856Z,101332.69
2024-01-12T06:42:35.840Z,101339.09
2024-01-12T06:45:04.710Z,101342.69
2024-01-12T06:47:32.446Z,101336.97
2024-01-12T06:50:00.249Z,101337.84
2024-01-12T06:52:28.077Z,101351.81
2024-01-12T06:54:55.884Z,101354.84
2024-01-12T06:57:23.763Z,101353.03
2024-01-12T06:59:52.771Z,101354.47
2024-01-12T07:02:20.523Z,101344.84
2024-01-12T07:04:48.140Z,101342.69
2024-01-12T07:07:15.832Z,101342.31
2024-01-12T07:09:43.513Z,101338.03
2024-01-12T07:12:11.199Z,101340.53
2024-01-12T07:14:39.103Z,101340.53
2024-01-12T07:17:08.086Z,101344.47
2024-01-12T07:19:35.809Z,101341.09
2024-01-12T07:22:03.589Z,101358.44
2024-01-12T07:24:31.188Z,101357.88
2024-01-12T07:26:58.926Z,101354.47
2024-01-12T07:29:26.646Z,101351.63
2024-01-12T07:31:55.812Z,101348.03
2024-01-12T07:34:26.379Z,101353.41
2024-01-12T07:36:54.908Z,101363.06
2024-01-12T07:39:22.519Z,101372.34
2024-01-12T07:41:50.168Z,101371.81
2024-01-12T07:44:18.495Z,101379.13
2024-01-12T07:46:46.099Z,101377.72
2024-01-12T07:49:13.736Z,101375.91
2024-01-12T07:51:42.953Z,101374.31
2024-01-12T07:54:10.686Z,101372.16
2024-01-12T07:56:38.360Z,101388.78
2024-01-12T07:59:05.938Z,101389.47
2024-01-12T08:01:33.556Z,101390.19
2024-01-12T08:04:01.157Z,101390.53
2024-01-12T08:06:28.934Z,101390.34
2024-01-12T08:08:57.978Z,101393.38
2024-01-12T08:11:32.188Z,101391.94
2024-01-12T08:14:07.896Z,101398.75
2024-01-12T08:16:35.551Z,101396.22
2024-01-12T08:19:03.210Z,101402.28
2024-01-12T08:21:40.862Z,101406.91
2024-01-12T08:24:17.613Z,101404.41
2024-01-12T08:26:46.740Z,101402.94
2024-01-12T08:29:14.533Z,101411.91
2024-01-12T08:31:43.077Z,101410.78
2024-01-12T08:34:11.222Z,101423.28
2024-01-12T08:36:38.924Z,101423.00
2024-01-12T08:39:06.627Z,101422.78
2024-01-12T08:41:35.736Z,101428.47
2024-01-12T08:44:03.532Z,101432.63
2024-01-12T08:46:31.163Z,101437.56
2024-01-12T08:48:59.934Z,101436.19
2024-01-12T08:51:27.690Z,101430.69
2024-01-12T08:53:55.438Z,101433.41
2024-01-12T08:56:23.164Z,101435.16
2024-01-12T08:58:52.159Z,101444.16
2024-01-12T09:01:20.233Z,101447.41
2024-01-12T09:03:50.695Z,101443.53
2024-01-12T09:06:20.383Z,101449.94
2024-01-12T09:08:48.145Z,101460.00
2024-01-12T09:11:15.859Z,101456.97
2024-01-12T09:13:43.552Z,101447.34
2024-01-12T09:16:13.140Z,101451.50
2024-01-12T09:18:41.008Z,101459.00
2024-01-12T09:21:08.994Z,101452.81
2024-01-12T09:23:36.886Z,101441.91
2024-01-12T09:26:04.641Z,101443.69
2024-01-12T09:28:32.192Z,101455.78
2024-01-12T09:31:00.162Z,101445.31
2024-01-12T09:33:29.218Z,101435.84
2024-01-12T09:35:57.079Z,101431.41
2024-01-12T09:38:24.844Z,101433.25
2024-01-12T09:40:53.377Z,101444.22
2024-01-12T09:43:23.963Z,101448.38
2024-01-12T09:45:53.216Z,101450.47
2024-01-12T09:48:22.150Z,101450.78
2024-01-12T09:50:53.064Z,101448.38
2024-01-12T09:53:22.688Z,101443.75
2024-01-12T09:56:00.180Z,101441.38
2024-01-12T09:58:31.881Z,101441.25
2024-01-12T10:00:59.639Z,101446.13
2024-01-12T10:03:27.672Z,101441.78
2024-01-12T10:05:56.845Z,101450.56
2024-01-12T10:08:24.560Z,101446.56
2024-01-12T10:10:52.599Z,101437.50
2024-01-12T10:13:20.284Z,101444.13
2024-01-12T10:15:47.980Z,101433.44
2024-01-12T10:18:15.887Z,101435.66
2024-01-12T10:20:43.586Z,101439.38
2024-01-12T10:23:12.569Z,101440.34
2024-01-12T10:25:40.227Z,101442.25
2024-01-12T10:28:07.952Z,101432.97
2024-01-12T10:30:36.750Z,101439.22
2024-01-12T10:33:04.736Z,101438.38
2024-01-12T10:35:32.511Z,101433.66
2024-01-12T10:38:03.543Z,101446.28
2024-01-12T10:40:32.618Z,101425.25
2024-01-12T10:43:05.656Z,101429.06
2024-01-12T10:45:34.302Z,101434.16
2024-01-12T10:48:05.631Z,101430.63
2024-01-12T10:50:37.212Z,101435.56
2024-01-12T10:53:12.523Z,101431.34
2024-01-12T10:55:49.492Z,101433.31
2024-01-12T10:58:18.543Z,101428.47
2024-01-12T11:00:47.215Z,101430.00
2024-01-12T11:03:17.554Z,101425.38
2024-01-12T11:05:46.328Z,101434.19
2024-01-12T11:08:14.521Z,101424.72
2024-01-12T11:10:52.129Z,101418.56
2024-01-12T11:13:20.310Z,101418.13
2024-01-12T11:15:52.045Z,101423.97
2024-01-12T11:18:20.573Z,101420.72
2024-01-12T11:20:48.465Z,101420.34
2024-01-12T11:23:16.248Z,101417.56
2024-01-12T11:25:45.969Z,101409.00
2024-01-12T11:28:15.875Z,101405.78
2024-01-12T11:30:43.871Z,101416.41
2024-01-12T11:33:11.826Z,101415.44
2024-01-12T11:35:40.740Z,101409.44
2024-01-12T11:38:11.269Z,101413.44
2024-01-12T11:40:39.607Z,101416.56
2024-01-12T11:43:16.609Z,101421.22
2024-01-12T11:45:45.484Z,101425.22
2024-01-12T11:48:16.099Z,101413.00
2024-01-12T11:50:43.920Z,101407.50
2024-01-12T11:53:11.652Z,101410.03
2024-01-12T11:55:41.292Z,101407.16
2024-01-12T11:58:10.244Z,101401.59
2024-01-12T12:00:37.907Z,101400.84
2024-01-12T12:03:06.182Z,101394.19
2024-01-12T12:05:33.984Z,101404.41
2024-01-12T12:08:01.813Z,101394.34
2024-01-12T12:10:37.381Z,101386.19
2024-01-12T12:13:12.589Z,101387.00
2024-01-12T12:15:40.235Z,101378.56
2024-01-12T12:18:08.451Z,101376.41
2024-01-12T12:20:36.696Z,101368.78
2024-01-12T12:23:04.759Z,101368.16
2024-01-12T12:25:32.739Z,101358.00
2024-01-12T12:28:00.525Z,101354.91
2024-01-12T12:30:30.912Z,101350.91
2024-01-12T12:33:01.730Z,101347.25
2024-01-12T12:35:29.642Z,101348.13
2024-01-12T12:38:02.664Z,101350.47
2024-01-12T12:40:30.721Z,101343.31
2024-01-12T12:42:59.781Z,101339.09
2024-01-12T12:45:28.454Z,101340.69
2024-01-12T12:47:59.303Z,101321.00
2024-01-12T12:50:27.383Z,101322.59
2024-01-12T12:52:55.076Z,101324.19
2024-01-12T12:55:23.239Z,101328.81
2024-01-12T12:57:52.129Z,101327.88
2024-01-12T13:00:20.157Z,101317.09
2024-01-12T13:02:49.564Z,101301.22
2024-01-12T13:05:22.908Z,101311.00
2024-01-12T13:07:51.397Z,101310.41
2024-01-12T13:10:19.029Z,101302.81
2024-01-12T13:12:46.674Z,101294.94
2024-01-12T13:15:14.356Z,101296.44
2024-01-12T13:17:43.040Z,101296.47
2024-01-12T13:20:12.962Z,101290.19
2024-01-12T13:22:42.086Z,101286.66
2024-01-12T13:25:10.042Z,101286.19
2024-01-12T13:27:38.615Z,101288.47
2024-01-12T13:30:09.258Z,101283.34
2024-01-12T13:32:37.457Z,101281.25
2024-01-12T13:35:06.030Z,101281.56
2024-01-12T13:37:33.787Z,101291.63
2024-01-12T13:40:02.988Z,101289.78
2024-01-12T13:42:30.727Z,101280.63
2024-01-12T13:44:58.674Z,101278.63
2024-01-12T13:47:26.470Z,101277.50
2024-01-12T13:49:54.255Z,101272.28
2024-01-12T13:52:22.614Z,101275.06
2024-01-12T13:54:50.516Z,101271.13
2024-01-12T13:57:19.982Z,101268.66
2024-01-12T13:59:47.658Z,101271.75
2024-01-12T14:02:15.438Z,101270.13
2024-01-12T14:04:43.538Z,101265.00
2024-01-12T14:07:11.327Z,101277.63
2024-01-12T14:09:39.229Z,101278.41
2024-01-12T14:12:09.918Z,101252.72
2024-01-12T14:14:39.959Z,101264.22
2024-01-12T14:17:07.591Z,101276.38
2024-01-12T14:19:35.365Z,101279.59
2024-01-12T14:22:03.069Z,101283.84
2024-01-12T14:24:30.674Z,101281.13
2024-01-12T14:26:58.306Z,101281.31
2024-01-12T14:29:26.126Z,101286.47
2024-01-12T14:31:56.141Z,101291.84
2024-01-12T14:34:24.010Z,101296.31
2024-01-12T14:36:51.851Z,101292.59
2024-01-12T14:39:19.528Z,101296.56
2024-01-12T14:41:48.517Z,101293.19
2024-01-12T14:44:17.043Z,101293.75
2024-01-12T14:46:45.061Z,101296.97
2024-01-12T14:49:15.365Z,101303.34
2024-01-12T14:51:43.939Z,101290.16
2024-01-12T14:54:11.622Z,101288.50
2024-01-12T14:56:39.344Z,101290.03
2024-01-12T14:59:07.045Z,101289.00
2024-01-12T15:01:34.748Z,101293.56
2024-01-12T15:04:10.970Z,101297.72
2024-01-12T15:06:47.915Z,101293.50
2024-01-12T15:09:17.350Z,101302.47
2024-01-12T15:11:47.405Z,101287.13
2024-01-12T15:14:15.763Z,101277.38
2024-01-12T15:16:44.886Z,101287.72
2024-01-12T15:19:13.074Z,101289.53
2024-01-12T15:21:40.993Z,101281.00
2024-01-12T15:24:10.054Z,101280.13
2024-01-12T15:26:38.102Z,101278.47
2024-01-12T15:29:05.786Z,101279.94
2024-01-12T15:31:33.601Z,101273.47
2024-01-12T15:34:01.451Z,101283.31
2024-01-12T15:36:29.327Z,101286.06
2024-01-12T15:38:57.020Z,101278.41
2024-01-12T15:41:26.019Z,101270.53
2024-01-12T15:43:53.843Z,101275.06
2024-01-12T15:46:21.443Z,101279.91
2024-01-12T15:48:49.233Z,101278.25
2024-01-12T15:51:17.293Z,101272.72
2024-01-12T15:53:45.158Z,101273.38
2024-01-12T15:56:12.800Z,101280.56
2024-01-12T15:58:41.814Z,101271.41
2024-01-12T16:01:09.483Z,101273.25
2024-01-12T16:03:37.142Z,101271.88
2024-01-12T16:06:08.610Z,101278.03
2024-01-12T16:08:36.393Z,101274.44
2024-01-12T16:11:04.024Z,101276.72
2024-01-12T16:13:31.590Z,101288.47
2024-01-12T16:16:01.292Z,101283.25
2024-01-12T16:18:28.996Z,101293.97
2024-01-12T16:20:56.777Z,101297.22
2024-01-12T16:23:24.460Z,101297.66
2024-01-12T16:25:52.160Z,101297.63
2024-01-12T16:28:19.890Z,101305.16
2024-01-12T16:30:47.636Z,101309.94
2024-01-12T16:33:16.822Z,101310.91
2024-01-12T16:35:44.535Z,101317.41
2024-01-12T16:38:12.157Z,101319.38
2024-01-12T16:40:39.996Z,101320.06
2024-01-12T16:43:07.673Z,101310.25
2024-01-12T16:45:35.333Z,101316.53
2024-01-12T16:48:03.106Z,101319.56
2024-01-12T16:50:32.147Z,101319.66
2024-01-12T16:52:59.869Z,101320.88
2024-01-12T16:55:27.935Z,101311.97
2024-01-12T16:57:55.725Z,101312.53
2024-01-12T17:00:23.440Z,101319.56
2024-01-12T17:02:51.172Z,101324.03
2024-01-12T17:05:18.842Z,101322.75
2024-01-12T17:07:48.447Z,101315.91
2024-01-12T17:10:16.366Z,101323.66
2024-01-12T17:12:43.942Z,101317.72
2024-01-12T17:15:17.455Z,101319.75
2024-01-12T17:17:45.735Z,101322.44
2024-01-12T17:20:13.899Z,101324.34
2024-01-12T17:22:41.618Z,101322.13
2024-01-12T17:25:11.372Z,101336.13
2024-01-12T17:27:38.999Z,101336.63
2024-01-12T17:30:07.807Z,101336.19
2024-01-12T17:32:35.559Z,101334.69
2024-01-12T17:35:03.292Z,101332.56
2024-01-12T17:37:31.062Z,101334.09
2024-01-12T17:39:58.693Z,101333.03
2024-01-12T17:42:27.817Z,101329.03
2024-01-12T17:44:55.386Z,101330.81
2024-01-12T17:47:23.138Z,101329.28
2024-01-12T17:49:51.900Z,101323.13
2024-01-12T17:52:21.713Z,101323.13
2024-01-12T17:54:49.800Z,101331.22
2024-01-12T17:57:17.482Z,101338.28
2024-01-12T17:59:46.507Z,101337.22
2024-01-12T18:02:14.893Z,101345.56
2024-01-12T18:04:43.397Z,101338.00
2024-01-12T18:07:10.996Z,101337.22
2024-01-12T18:09:38.554Z,101346.75
2024-01-12T18:12:07.260Z,101349.81
2024-01-12T18:14:37.759Z,101346.50
2024-01-12T18:17:07.973Z,101352.44
2024-01-12T18:19:35.829Z,101349.94
2024-01-12T18:22:03.513Z,101346.78
2024-01-12T18:24:31.107Z,101357.81
2024-01-12T18:26:58.792Z,101360.91
2024-01-12T18:29:26.886Z,101357.19
2024-01-12T18:31:55.054Z,101351.25
2024-01-12T18:34:24.330Z,101352.16
2024-01-12T18:36:52.160Z,101353.44
2024-01-12T18:39:19.870Z,101351.13
2024-01-12T18:41:47.590Z,101354.56
2024-01-12T18:44:15.265Z,101355.53
2024-01-12T18:46:43.760Z,101342.47
2024-01-12T18:49:11.593Z,101339.53
2024-01-12T18:51:41.828Z,101331.81
2024-01-12T18:54:10.785Z,101329.44
2024-01-12T18:56:38.599Z,101327.41
2024-01-12T18:59:06.237Z,101325.91
2024-01-12T19:01:36.975Z,101326.78
2024-01-12T19:04:05.108Z,101320.56
2024-01-12T19:06:32.855Z,101322.63
2024-01-12T19:09:05.640Z,101323.81
2024-01-12T19:11:33.774Z,101319.53
2024-01-12T19:14:01.451Z,101331.88
2024-01-12T19:16:29.337Z,101337.06
2024-01-12T19:18:57.256Z,101323.88
2024-01-12T19:21:24.939Z,101324.19
2024-01-12T19:23:52.642Z,101319.28
2024-01-12T19:26:21.646Z,101323.44
2024-01-12T19:28:49.267Z,101324.47
2024-01-12T19:31:23.420Z,101316.44
2024-01-12T19:33:51.287Z,101309.94
2024-01-12T19:36:19.465Z,101308.44
2024-01-12T19:38:47.277Z,101301.03
2024-01-12T19:41:24.495Z,101310.19
2024-01-12T19:43:52.389Z,101310.50
2024-01-12T19:46:20.023Z,101317.03
2024-01-12T19:48:47.867Z,101312.88
2024-01-12T19:51:15.680Z,101316.28
2024-01-12T19:53:43.792Z,101319.84
2024-01-12T19:56:11.485Z,101316.72
2024-01-12T19:58:40.770Z,101317.63
2024-01-12T20:01:10.521Z,101318.31
2024-01-12T20:03:39.313Z,101319.50
2024-01-12T20:06:07.227Z,101314.59
2024-01-12T20:08:35.121Z,101315.34
2024-01-12T20:11:05.497Z,101311.97
2024-01-12T20:13:34.713Z,101320.91
2024-01-12T20:16:03.899Z,101320.28
2024-01-12T20:18:31.691Z,101306.53
2024-01-12T20:20:59.388Z,101311.72
2024-01-12T20:23:28.328Z,101309.63
2024-01-12T20:25:56.139Z,101312.88
2024-01-12T20:28:23.711Z,101305.56
2024-01-12T20:30:51.441Z,101299.78
2024-01-12T20:33:20.733Z,101292.69
2024-01-12T20:35:49.359Z,101301.47
2024-01-12T20:38:17.271Z,101305.75
2024-01-12T20:40:45.935Z,101301.72
2024-01-12T20:43:13.610Z,101304.56
2024-01-12T20:45:43.762Z,101299.22
2024-01-12T20:48:12.876Z,101297.13
2024-01-12T20:50:41.945Z,101297.13
2024-01-12T20:53:09.589Z,101305.56
2024-01-12T20:55:37.195Z,101299.63
2024-01-12T20:58:05.077Z,101310.75
2024-01-12T21:00:34.142Z,101304.38
2024-01-12T21:03:02.065Z,101296.53
2024-01-12T21:05:29.823Z,101300.97
2024-01-12T21:07:58.881Z,101299.22
2024-01-12T21:10:26.661Z,101293.88
2024-01-12T21:12:54.255Z,101292.97
2024-01-12T21:15:21.879Z,101292.09
2024-01-12T21:17:50.511Z,101290.03
2024-01-12T21:20:18.247Z,101291.66
2024-01-12T21:22:45.865Z,101288.56
2024-01-12T21:25:15.071Z,101284.41
2024-01-12T21:27:43.236Z,101286.91
2024-01-12T21:30:11.946Z,101281.88
2024-01-12T21:32:40.289Z,101282.16
2024-01-12T21:35:08.706Z,101280.53
2024-01-12T21:37:36.422Z,101285.00
2024-01-12T21:40:05.072Z,101282.59
2024-01-12T21:42:34.275Z,101276.25
2024-01-12T21:45:02.018Z,101274.47
2024-01-12T21:47:29.936Z,101278.50
2024-01-12T21:49:57.716Z,101275.22
2024-01-12T21:52:25.315Z,101273.47
2024-01-12T21:54:52.978Z,101272.38
2024-01-12T21:57:20.753Z,101266.41
2024-01-12T21:59:49.924Z,101271.88
2024-01-12T22:02:17.593Z,101270.97
2024-01-12T22:04:45.193Z,101266.34
2024-01-12T22:07:13.817Z,101266.34
2024-01-12T22:09:41.539Z,101273.31
2024-01-12T22:12:10.043Z,101274.81
2024-01-12T22:14:37.890Z,101271.53
2024-01-12T22:17:06.863Z,101262.94
2024-01-12T22:19:34.630Z,101264.41
2024-01-12T22:22:02.294Z,101264.72
2024-01-12T22:24:29.904Z,101256.38
2024-01-12T22:26:57.640Z,101257.44
2024-01-12T22:29:25.262Z,101249.84
2024-01-12T22:31:52.912Z,101254.91
2024-01-12T22:34:21.880Z,101253.84
2024-01-12T22:36:49.608Z,101249.56
2024-01-12T22:39:17.227Z,101243.28
2024-01-12T22:41:44.937Z,101245.63
2024-01-12T22:44:12.632Z,101254.25
2024-01-12T22:46:40.650Z,101250.97
2024-01-12T22:49:11.299Z,101248.44
2024-01-12T22:51:41.220Z,101244.72
2024-01-12T22:54:08.980Z,101245.34
2024-01-12T22:56:36.820Z,101245.06
2024-01-12T22:59:04.516Z,101240.34
2024-01-12T23:01:32.147Z,101244.50
2024-01-12T23:03:59.934Z,101240.03
2024-01-12T23:06:27.715Z,101233.22
2024-01-12T23:08:56.788Z,101223.19
2024-01-12T23:11:24.440Z,101219.59
2024-01-12T23:13:52.091Z,101219.00
2024-01-12T23:16:20.095Z,101218.59
2024-01-12T23:18:47.820Z,101220.16
2024-01-12T23:21:15.551Z,101220.91
2024-01-12T23:23:46.090Z,101209.50
2024-01-12T23:26:15.331Z,101210.06
2024-01-12T23:28:43.005Z,101209.34
2024-01-12T23:31:11.348Z,101212.41
2024-01-12T23:33:39.141Z,101207.63
2024-01-12T23:36:07.258Z,101207.03
2024-01-12T23:38:35.671Z,101194.88
2024-01-12T23:41:04.401Z,101200.25
2024-01-12T23:43:33.631Z,101201.75
2024-01-12T23:46:01.599Z,101207.53
2024-01-12T23:48:34.726Z,101204.28
2024-01-12T23:51:05.884Z,101192.38
2024-01-12T23:53:33.693Z,101195.19
2024-01-12T23:56:01.470Z,101180.03
2024-01-12T23:58:34.699Z,101181.81
